Terminal Aerodrome Forecast
Issued by NWS Sioux Falls, SD

Home | Current Version | Previous Version | Text Only | Print | Product List | Glossary Off
Versions: 1 2 3 4 5 6 7 8 9 10 11 12 13 14 15 16

000
FTUS43 KFSD 252320
TAFHON
TAF
KHON 252320Z 2600/2624 32007KT P6SM SCT060
     FM260300 VRB03KT P6SM FEW250
     FM261100 13006KT P6SM SCT120
     FM261500 16010KT P6SM SCT120 BKN200=

USA.gov is the U.S. government's official web portal to all federal, state and local government web resources and services.